createdAt,value
2022-10-23T00:00:41.866Z,100.00
2022-10-23T00:03:09.638Z,100.00
2022-10-23T00:05:40.587Z,100.00
2022-10-23T00:08:08.767Z,100.00
2022-10-23T00:10:36.595Z,100.00
2022-10-23T00:13:04.333Z,100.00
2022-10-23T00:15:32.495Z,100.00
2022-10-23T00:18:01.812Z,100.00
2022-10-23T00:20:29.522Z,100.00
2022-10-23T00:22:57.418Z,100.00
2022-10-23T00:25:25.099Z,100.00
2022-10-23T00:27:52.908Z,100.00
2022-10-23T00:30:20.827Z,100.00
2022-10-23T00:32:48.636Z,100.00
2022-10-23T00:35:17.929Z,100.00
2022-10-23T00:37:45.730Z,100.00
2022-10-23T00:40:13.835Z,100.00
2022-10-23T00:42:41.909Z,100.00
2022-10-23T00:45:18.519Z,100.00
2022-10-23T00:47:47.408Z,100.00
2022-10-23T00:50:16.914Z,100.00
2022-10-23T00:52:48.592Z,100.00
2022-10-23T00:55:17.673Z,100.00
2022-10-23T00:57:46.805Z,100.00
2022-10-23T01:00:29.658Z,100.00
2022-10-23T01:02:58.413Z,100.00
2022-10-23T01:05:32.680Z,100.00
2022-10-23T01:08:03.792Z,100.00
2022-10-23T01:10:35.820Z,100.00
2022-10-23T01:13:09.057Z,100.00
2022-10-23T01:15:39.354Z,100.00
2022-10-23T01:18:11.422Z,100.00
2022-10-23T01:20:48.144Z,100.00
2022-10-23T01:23:27.392Z,100.00
2022-10-23T01:26:12.709Z,100.00
2022-10-23T01:28:46.294Z,100.00
2022-10-23T01:31:17.595Z,100.00
2022-10-23T01:33:50.283Z,100.00
2022-10-23T01:36:27.984Z,100.00
2022-10-23T01:39:01.166Z,100.00
2022-10-23T01:41:31.371Z,100.00
2022-10-23T01:44:05.762Z,100.00
2022-10-23T01:46:37.484Z,100.00
2022-10-23T01:49:10.611Z,100.00
2022-10-23T01:51:39.161Z,100.00
2022-10-23T01:54:11.681Z,100.00
2022-10-23T01:56:43.492Z,100.00
2022-10-23T01:59:15.725Z,100.00
2022-10-23T02:01:46.098Z,100.00
2022-10-23T02:04:16.827Z,100.00
2022-10-23T02:06:44.676Z,100.00
2022-10-23T02:09:12.492Z,100.00
2022-10-23T02:11:46.271Z,100.00
2022-10-23T02:14:20.050Z,100.00
2022-10-23T02:16:52.075Z,100.00
2022-10-23T02:19:23.742Z,100.00
2022-10-23T02:21:53.943Z,100.00
2022-10-23T02:24:28.164Z,100.00
2022-10-23T02:27:00.731Z,100.00
2022-10-23T02:29:33.027Z,100.00
2022-10-23T02:32:02.108Z,100.00
2022-10-23T02:34:29.864Z,100.00
2022-10-23T02:36:57.983Z,100.00
2022-10-23T02:39:28.134Z,100.00
2022-10-23T02:42:01.130Z,100.00
2022-10-23T02:44:40.363Z,100.00
2022-10-23T02:47:17.814Z,99.28
2022-10-23T02:49:49.503Z,97.26
2022-10-23T02:52:22.553Z,100.00
2022-10-23T02:55:11.496Z,100.00
2022-10-23T02:57:54.139Z,96.78
2022-10-23T03:00:24.599Z,97.93
2022-10-23T03:02:56.989Z,100.00
2022-10-23T03:05:29.528Z,100.00
2022-10-23T03:07:57.246Z,100.00
2022-10-23T03:10:25.165Z,100.00
2022-10-23T03:12:53.824Z,100.00
2022-10-23T03:15:23.168Z,100.00
2022-10-23T03:17:52.772Z,100.00
2022-10-23T03:20:20.540Z,99.02
2022-10-23T03:22:48.325Z,93.96
2022-10-23T03:25:16.146Z,95.90
2022-10-23T03:27:43.924Z,100.00
2022-10-23T03:30:15.977Z,100.00
2022-10-23T03:32:45.580Z,100.00
2022-10-23T03:35:13.527Z,100.00
2022-10-23T03:37:41.366Z,100.00
2022-10-23T03:40:10.713Z,100.00
2022-10-23T03:42:38.440Z,95.65
2022-10-23T03:45:07.110Z,100.00
2022-10-23T03:47:40.716Z,98.95
2022-10-23T03:50:10.911Z,100.00
2022-10-23T03:52:40.753Z,97.77
2022-10-23T03:55:09.741Z,100.00
2022-10-23T03:57:37.589Z,94.63
2022-10-23T04:00:07.051Z,97.06
2022-10-23T04:02:44.310Z,100.00
2022-10-23T04:05:14.298Z,100.00
2022-10-23T04:07:51.488Z,100.00
2022-10-23T04:10:19.319Z,100.00
2022-10-23T04:12:47.099Z,100.00
2022-10-23T04:15:14.848Z,100.00
2022-10-23T04:17:46.148Z,97.77
2022-10-23T04:20:15.680Z,97.65
2022-10-23T04:22:43.681Z,97.57
2022-10-23T04:25:12.693Z,97.66
2022-10-23T04:27:40.617Z,97.24
2022-10-23T04:30:09.868Z,98.56
2022-10-23T04:32:38.936Z,95.03
2022-10-23T04:35:08.131Z,99.12
2022-10-23T04:37:37.807Z,100.00
2022-10-23T04:40:08.523Z,100.00
2022-10-23T04:42:37.864Z,100.00
2022-10-23T04:45:06.337Z,100.00
2022-10-23T04:47:34.775Z,100.00
2022-10-23T04:50:03.617Z,100.00
2022-10-23T04:52:55.395Z,100.00
2022-10-23T04:55:52.726Z,100.00
2022-10-23T04:58:36.016Z,99.32
2022-10-23T05:01:03.863Z,97.85
2022-10-23T05:03:31.789Z,100.00
2022-10-23T05:06:00.208Z,100.00
2022-10-23T05:08:53.066Z,100.00
2022-10-23T05:11:43.958Z,100.00
2022-10-23T05:14:11.722Z,100.00
2022-10-23T05:16:44.392Z,100.00
2022-10-23T05:19:18.605Z,99.41
2022-10-23T05:21:49.552Z,100.00
2022-10-23T05:24:21.679Z,97.82
2022-10-23T05:26:57.631Z,100.00
2022-10-23T05:29:25.465Z,96.59
2022-10-23T05:31:57.094Z,99.22
2022-10-23T05:34:28.905Z,97.12
2022-10-23T05:36:56.845Z,95.92
2022-10-23T05:39:26.435Z,94.74
2022-10-23T05:41:54.988Z,94.90
2022-10-23T05:44:25.653Z,97.74
2022-10-23T05:47:29.371Z,95.32
2022-10-23T05:50:12.496Z,96.15
2022-10-23T05:53:15.151Z,95.15
2022-10-23T05:56:06.708Z,94.06
2022-10-23T05:58:44.935Z,94.29
2022-10-23T06:01:25.313Z,95.36
2022-10-23T06:04:00.312Z,95.24
2022-10-23T06:06:54.364Z,99.17
2022-10-23T06:09:22.258Z,99.24
2022-10-23T06:11:56.111Z,94.06
2022-10-23T06:14:24.467Z,93.92
2022-10-23T06:16:55.675Z,97.73
2022-10-23T06:19:25.133Z,97.32
2022-10-23T06:21:55.898Z,91.48
2022-10-23T06:24:34.330Z,92.14
2022-10-23T06:27:06.338Z,90.09
2022-10-23T06:29:44.707Z,88.73
2022-10-23T06:32:12.670Z,90.58
2022-10-23T06:34:42.635Z,91.43
2022-10-23T06:37:10.502Z,94.70
2022-10-23T06:39:45.422Z,100.00
2022-10-23T06:42:37.629Z,100.00
2022-10-23T06:45:25.994Z,100.00
2022-10-23T06:48:12.470Z,100.00
2022-10-23T06:51:05.220Z,100.00
2022-10-23T06:53:40.517Z,100.00
2022-10-23T06:56:29.233Z,100.00
2022-10-23T06:59:02.620Z,100.00
2022-10-23T07:01:31.452Z,100.00
2022-10-23T07:03:59.799Z,100.00
2022-10-23T07:06:27.697Z,100.00
2022-10-23T07:08:55.678Z,96.09
2022-10-23T07:12:01.799Z,100.00
2022-10-23T07:14:41.069Z,100.00
2022-10-23T07:17:09.045Z,100.00
2022-10-23T07:19:36.978Z,100.00
2022-10-23T07:22:12.034Z,100.00
2022-10-23T07:25:06.808Z,100.00
2022-10-23T07:27:39.579Z,100.00
2022-10-23T07:30:12.716Z,100.00
2022-10-23T07:32:51.609Z,98.22
2022-10-23T07:35:40.265Z,83.17
2022-10-23T07:38:14.802Z,79.64
2022-10-23T07:40:46.834Z,100.00
2022-10-23T07:43:18.495Z,100.00
2022-10-23T07:45:49.476Z,92.46
2022-10-23T07:48:32.184Z,81.85
2022-10-23T07:51:01.859Z,74.64
2022-10-23T07:53:31.091Z,75.80
2022-10-23T07:56:17.790Z,83.58
2022-10-23T07:59:08.476Z,85.85
2022-10-23T08:01:38.977Z,81.44
2022-10-23T08:04:07.217Z,86.76
2022-10-23T08:06:39.603Z,75.94
2022-10-23T08:09:07.663Z,87.81
2022-10-23T08:11:39.096Z,83.15
2022-10-23T08:14:09.358Z,85.16
2022-10-23T08:16:40.260Z,100.00
2022-10-23T08:19:16.983Z,98.80
2022-10-23T08:21:46.774Z,86.19
2022-10-23T08:24:15.523Z,90.14
2022-10-23T08:26:46.197Z,75.69
2022-10-23T08:29:15.580Z,74.56
2022-10-23T08:31:45.001Z,74.22
2022-10-23T08:34:33.106Z,78.76
2022-10-23T08:37:03.389Z,86.93
2022-10-23T08:39:33.239Z,100.00
2022-10-23T08:42:21.486Z,76.23
2022-10-23T08:44:54.917Z,99.52
2022-10-23T08:47:29.597Z,100.00
2022-10-23T08:50:23.528Z,82.88
2022-10-23T08:52:53.496Z,79.73
2022-10-23T08:55:25.192Z,72.55
2022-10-23T08:57:57.456Z,65.79
2022-10-23T09:00:25.197Z,67.50
2022-10-23T09:02:55.295Z,66.60
2022-10-23T09:05:29.074Z,75.86
2022-10-23T09:08:17.523Z,68.23
2022-10-23T09:11:00.089Z,68.41
2022-10-23T09:13:41.672Z,69.05
2022-10-23T09:16:18.563Z,88.24
2022-10-23T09:18:48.272Z,66.58
2022-10-23T09:21:16.136Z,64.55
2022-10-23T09:23:44.079Z,60.96
2022-10-23T09:26:14.298Z,65.97
2022-10-23T09:28:48.627Z,65.50
2022-10-23T09:31:17.115Z,74.50
2022-10-23T09:33:56.631Z,85.99
2022-10-23T09:36:25.997Z,85.15
2022-10-23T09:38:55.823Z,62.22
2022-10-23T09:41:27.779Z,66.25
2022-10-23T09:44:03.137Z,65.37
2022-10-23T09:46:41.620Z,65.79
2022-10-23T09:49:18.742Z,68.47
2022-10-23T09:51:57.601Z,75.28
2022-10-23T09:54:25.351Z,69.52
2022-10-23T09:56:54.945Z,69.51
2022-10-23T09:59:26.613Z,82.80
2022-10-23T10:01:56.852Z,100.00
2022-10-23T10:04:52.035Z,69.29
2022-10-23T10:07:21.735Z,72.49
2022-10-23T10:09:49.621Z,68.65
2022-10-23T10:12:38.544Z,71.74
2022-10-23T10:15:13.269Z,69.88
2022-10-23T10:17:45.188Z,68.56
2022-10-23T10:20:39.342Z,78.78
2022-10-23T10:23:11.617Z,74.52
2022-10-23T10:25:48.553Z,61.56
2022-10-23T10:28:28.059Z,66.01
2022-10-23T10:31:04.030Z,56.73
2022-10-23T10:33:37.262Z,65.04
2022-10-23T10:36:14.489Z,61.01
2022-10-23T10:38:49.052Z,58.17
2022-10-23T10:41:45.157Z,54.71
2022-10-23T10:44:52.309Z,51.57
2022-10-23T10:47:24.229Z,58.92
2022-10-23T10:50:01.949Z,55.39
2022-10-23T10:52:51.798Z,61.45
2022-10-23T10:55:22.391Z,67.78
2022-10-23T10:57:55.803Z,86.17
2022-10-23T11:00:25.745Z,63.93
2022-10-23T11:02:56.024Z,58.77
2022-10-23T11:05:30.367Z,60.05
2022-10-23T11:08:03.055Z,54.78
2022-10-23T11:10:31.184Z,63.21
2022-10-23T11:12:58.972Z,60.46
2022-10-23T11:15:29.292Z,56.42
2022-10-23T11:18:00.120Z,49.70
2022-10-23T11:20:55.260Z,53.10
2022-10-23T11:23:45.875Z,53.81
2022-10-23T11:26:24.158Z,60.65
2022-10-23T11:29:04.320Z,66.21
2022-10-23T11:31:39.129Z,54.94
2022-10-23T11:34:33.825Z,58.00
2022-10-23T11:37:02.353Z,50.80
2022-10-23T11:39:32.448Z,57.05
2022-10-23T11:42:15.722Z,63.58
2022-10-23T11:44:44.867Z,56.03
2022-10-23T11:47:38.886Z,57.44
2022-10-23T11:50:18.367Z,58.20
2022-10-23T11:53:15.383Z,58.37
2022-10-23T11:56:01.973Z,54.65
2022-10-23T11:58:42.370Z,56.31
2022-10-23T12:01:24.279Z,56.93
2022-10-23T12:03:55.284Z,48.69
2022-10-23T12:06:26.164Z,52.88
2022-10-23T12:08:56.744Z,61.64
2022-10-23T12:11:41.107Z,53.63
2022-10-23T12:14:27.397Z,45.71
2022-10-23T12:16:55.166Z,50.25
2022-10-23T12:19:25.340Z,45.91
2022-10-23T12:21:54.161Z,45.06
2022-10-23T12:24:39.675Z,45.70
2022-10-23T12:27:22.216Z,48.74
2022-10-23T12:29:59.358Z,51.72
2022-10-23T12:32:34.528Z,62.99
2022-10-23T12:35:22.483Z,60.07
2022-10-23T12:38:01.781Z,56.32
2022-10-23T12:40:30.652Z,55.18
2022-10-23T12:43:01.922Z,60.46
2022-10-23T12:45:31.239Z,54.72
2022-10-23T12:48:00.620Z,54.77
2022-10-23T12:50:31.238Z,54.97
2022-10-23T12:53:00.976Z,57.49
2022-10-23T12:55:35.073Z,50.83
2022-10-23T12:58:05.129Z,55.20
2022-10-23T13:00:32.862Z,52.82
2022-10-23T13:03:01.844Z,51.05
2022-10-23T13:05:30.562Z,56.82
2022-10-23T13:07:59.431Z,53.83
2022-10-23T13:10:43.692Z,57.62
2022-10-23T13:13:13.971Z,61.27
2022-10-23T13:15:44.091Z,56.48
2022-10-23T13:18:16.734Z,53.17
2022-10-23T13:20:56.640Z,53.11
2022-10-23T13:23:28.071Z,53.08
2022-10-23T13:25:56.617Z,51.26
2022-10-23T13:28:27.536Z,50.23
2022-10-23T13:31:04.286Z,56.94
2022-10-23T13:33:37.628Z,57.54
2022-10-23T13:36:19.985Z,53.74
2022-10-23T13:38:49.125Z,49.35
2022-10-23T13:41:18.171Z,50.11
2022-10-23T13:43:48.755Z,53.06
2022-10-23T13:46:17.607Z,50.30
2022-10-23T13:48:45.559Z,49.81
2022-10-23T13:51:16.111Z,54.46
2022-10-23T13:53:43.870Z,56.87
2022-10-23T13:56:13.228Z,55.66
2022-10-23T13:58:41.336Z,53.01
2022-10-23T14:01:17.622Z,54.69
2022-10-23T14:03:45.468Z,58.16
2022-10-23T14:06:13.207Z,59.95
2022-10-23T14:08:40.924Z,60.87
2022-10-23T14:11:08.741Z,66.28
2022-10-23T14:13:36.526Z,62.98
2022-10-23T14:16:04.360Z,64.40
2022-10-23T14:18:33.442Z,69.79
2022-10-23T14:21:01.332Z,66.96
2022-10-23T14:23:29.094Z,66.25
2022-10-23T14:26:02.877Z,66.15
2022-10-23T14:28:30.651Z,64.39
2022-10-23T14:30:58.695Z,61.43
2022-10-23T14:33:26.443Z,61.13
2022-10-23T14:35:55.524Z,63.86
2022-10-23T14:38:23.258Z,59.12
2022-10-23T14:40:50.953Z,64.77
2022-10-23T14:43:18.941Z,69.30
2022-10-23T14:45:46.669Z,64.22
2022-10-23T14:48:14.412Z,63.51
2022-10-23T14:50:44.720Z,67.74
2022-10-23T14:53:13.968Z,67.47
2022-10-23T14:55:41.755Z,65.28
2022-10-23T14:58:09.517Z,61.99
2022-10-23T15:00:37.212Z,62.42
2022-10-23T15:03:05.083Z,65.48
2022-10-23T15:05:32.776Z,71.56
2022-10-23T15:08:01.711Z,70.07
2022-10-23T15:10:30.845Z,68.92
2022-10-23T15:12:58.602Z,72.99
2022-10-23T15:15:26.331Z,73.32
2022-10-23T15:17:54.062Z,71.36
2022-10-23T15:20:22.832Z,69.50
2022-10-23T15:22:50.597Z,76.94
2022-10-23T15:25:18.670Z,74.28
2022-10-23T15:27:48.337Z,74.18
2022-10-23T15:30:16.763Z,76.83
2022-10-23T15:32:44.500Z,73.87
2022-10-23T15:35:12.229Z,80.41
2022-10-23T15:37:40.043Z,89.27
2022-10-23T15:40:08.920Z,92.86
2022-10-23T15:42:36.815Z,94.10
2022-10-23T15:45:06.760Z,95.86
2022-10-23T15:47:34.463Z,92.20
2022-10-23T15:50:02.214Z,90.95
2022-10-23T15:52:29.939Z,80.91
2022-10-23T15:54:57.655Z,79.45
2022-10-23T15:57:26.853Z,79.51
2022-10-23T15:59:54.558Z,85.84
2022-10-23T16:02:24.143Z,92.58
2022-10-23T16:04:51.976Z,84.56
2022-10-23T16:07:19.822Z,75.82
2022-10-23T16:09:47.556Z,72.93
2022-10-23T16:12:15.377Z,79.68
2022-10-23T16:14:43.135Z,79.69
2022-10-23T16:17:11.413Z,77.21
2022-10-23T16:19:40.975Z,81.78
2022-10-23T16:22:09.213Z,75.91
2022-10-23T16:24:36.938Z,75.12
2022-10-23T16:27:04.835Z,82.98
2022-10-23T16:29:32.646Z,80.76
2022-10-23T16:32:00.779Z,71.99
2022-10-23T16:34:28.571Z,71.71
2022-10-23T16:36:57.729Z,76.68
2022-10-23T16:39:32.417Z,75.77
2022-10-23T16:45:12.103Z,74.22
2022-10-23T16:47:39.858Z,76.94
2022-10-23T16:50:08.164Z,90.70
2022-10-23T16:52:37.330Z,99.01
2022-10-23T16:55:05.681Z,99.80
2022-10-23T16:57:33.605Z,100.00
2022-10-23T17:00:01.452Z,95.98
2022-10-23T17:02:29.364Z,93.56
2022-10-23T17:04:57.305Z,100.00
2022-10-23T17:07:25.044Z,100.00
2022-10-23T17:09:54.133Z,100.00
2022-10-23T17:12:21.873Z,100.00
2022-10-23T17:14:49.586Z,97.95
2022-10-23T17:17:17.447Z,100.00
2022-10-23T17:19:46.486Z,100.00
2022-10-23T17:22:15.141Z,100.00
2022-10-23T17:24:46.178Z,98.28
2022-10-23T17:27:18.109Z,100.00
2022-10-23T17:29:45.819Z,100.00
2022-10-23T17:32:13.784Z,100.00
2022-10-23T17:34:41.542Z,100.00
2022-10-23T17:37:10.133Z,89.06
2022-10-23T17:39:37.936Z,100.00
2022-10-23T17:42:05.728Z,100.00
2022-10-23T17:44:34.786Z,100.00
2022-10-23T17:47:04.465Z,98.13
2022-10-23T17:49:32.186Z,99.95
2022-10-23T17:51:59.907Z,100.00
2022-10-23T17:54:28.467Z,100.00
2022-10-23T17:56:56.333Z,100.00
2022-10-23T17:59:24.390Z,100.00
2022-10-23T18:01:53.678Z,97.00
2022-10-23T18:04:21.711Z,100.00
2022-10-23T18:06:52.389Z,98.33
2022-10-23T18:09:20.419Z,100.00
2022-10-23T18:11:48.825Z,97.31
2022-10-23T18:14:16.948Z,92.36
2022-10-23T18:16:45.573Z,97.16
2022-10-23T18:19:15.335Z,96.70
2022-10-23T18:21:43.081Z,99.77
2022-10-23T18:24:11.211Z,100.00
2022-10-23T18:26:39.329Z,100.00
2022-10-23T18:29:08.561Z,98.51
2022-10-23T18:31:37.702Z,100.00
2022-10-23T18:34:07.759Z,95.55
2022-10-23T18:36:40.593Z,100.00
2022-10-23T18:39:10.209Z,95.67
2022-10-23T18:41:40.575Z,100.00
2022-10-23T18:44:08.968Z,100.00
2022-10-23T18:46:37.284Z,100.00
2022-10-23T18:49:05.746Z,88.69
2022-10-23T18:51:35.414Z,94.03
2022-10-23T18:54:06.600Z,100.00
2022-10-23T18:56:35.839Z,100.00
2022-10-23T18:59:05.828Z,100.00
2022-10-23T19:01:34.451Z,88.93
2022-10-23T19:04:02.708Z,96.52
2022-10-23T19:06:31.398Z,100.00
2022-10-23T19:08:59.248Z,100.00
2022-10-23T19:11:29.730Z,100.00
2022-10-23T19:13:57.414Z,89.26
2022-10-23T19:16:28.390Z,98.64
2022-10-23T19:18:58.076Z,100.00
2022-10-23T19:21:31.105Z,96.71
2022-10-23T19:23:59.976Z,100.00
2022-10-23T19:26:31.306Z,100.00
2022-10-23T19:28:59.159Z,90.65
2022-10-23T19:31:27.145Z,94.49
2022-10-23T19:33:55.254Z,100.00
2022-10-23T19:36:23.616Z,99.73
2022-10-23T19:38:51.488Z,94.71
2022-10-23T19:41:19.387Z,82.78
2022-10-23T19:43:48.555Z,92.89
2022-10-23T19:46:16.352Z,88.67
2022-10-23T19:48:44.975Z,86.31
2022-10-23T19:51:13.908Z,88.27
2022-10-23T19:53:42.690Z,90.74
2022-10-23T19:56:12.081Z,95.58
2022-10-23T19:58:40.094Z,90.19
2022-10-23T20:01:11.076Z,82.38
2022-10-23T20:03:39.448Z,81.16
2022-10-23T20:06:10.240Z,86.99
2022-10-23T20:08:38.018Z,79.64
2022-10-23T20:11:06.272Z,73.69
2022-10-23T20:13:34.020Z,82.45
2022-10-23T20:16:01.992Z,79.95
2022-10-23T20:18:31.170Z,85.11
2022-10-23T20:21:03.234Z,87.89
2022-10-23T20:23:30.964Z,85.13
2022-10-23T20:26:05.264Z,92.51
2022-10-23T20:28:33.069Z,97.11
2022-10-23T20:31:02.285Z,93.49
2022-10-23T20:33:31.385Z,93.69
2022-10-23T20:35:59.158Z,92.70
2022-10-23T20:38:26.934Z,90.88
2022-10-23T20:40:57.104Z,88.75
2022-10-23T20:43:24.826Z,100.00
2022-10-23T20:45:52.554Z,92.44
2022-10-23T20:48:20.278Z,88.16
2022-10-23T20:50:49.490Z,98.60
2022-10-23T20:53:17.231Z,91.74
2022-10-23T20:55:44.976Z,90.54
2022-10-23T20:58:12.870Z,94.91
2022-10-23T21:00:40.634Z,100.00
2022-10-23T21:03:08.419Z,97.28
2022-10-23T21:05:36.106Z,100.00
2022-10-23T21:08:05.511Z,100.00
2022-10-23T21:10:33.231Z,100.00
2022-10-23T21:13:00.969Z,100.00
2022-10-23T21:15:29.319Z,100.00
2022-10-23T21:18:03.982Z,100.00
2022-10-23T21:20:41.044Z,100.00
2022-10-23T21:23:10.290Z,100.00
2022-10-23T21:25:39.437Z,100.00
2022-10-23T21:28:07.404Z,100.00
2022-10-23T21:30:35.953Z,100.00
2022-10-23T21:33:04.256Z,100.00
2022-10-23T21:35:32.691Z,100.00
2022-10-23T21:38:00.528Z,100.00
2022-10-23T21:40:29.803Z,100.00
2022-10-23T21:42:57.554Z,100.00
2022-10-23T21:45:25.270Z,100.00
2022-10-23T21:47:53.011Z,100.00
2022-10-23T21:50:20.763Z,100.00
2022-10-23T21:52:51.832Z,100.00
2022-10-23T21:55:19.787Z,88.86
2022-10-23T21:57:48.877Z,98.51
2022-10-23T22:00:17.522Z,100.00
2022-10-23T22:02:45.517Z,100.00
2022-10-23T22:05:13.545Z,100.00
2022-10-23T22:07:41.375Z,97.00
2022-10-23T22:10:09.827Z,100.00
2022-10-23T22:12:37.497Z,100.00
2022-10-23T22:15:07.945Z,100.00
2022-10-23T22:17:35.663Z,100.00
2022-10-23T22:20:03.335Z,100.00
2022-10-23T22:22:31.010Z,100.00
2022-10-23T22:24:58.739Z,100.00
2022-10-23T22:27:26.647Z,100.00
2022-10-23T22:29:54.488Z,100.00
2022-10-23T22:32:23.511Z,100.00
2022-10-23T22:34:53.452Z,100.00
2022-10-23T22:37:21.665Z,100.00
2022-10-23T22:39:51.320Z,100.00
2022-10-23T22:42:19.016Z,100.00
2022-10-23T22:44:46.701Z,100.00
2022-10-23T22:47:14.414Z,100.00
2022-10-23T22:49:43.560Z,100.00
2022-10-23T22:52:11.330Z,100.00
2022-10-23T22:54:39.065Z,100.00
2022-10-23T22:57:06.819Z,100.00
2022-10-23T22:59:34.518Z,100.00
2022-10-23T23:02:02.250Z,100.00
2022-10-23T23:04:38.644Z,100.00
2022-10-23T23:07:08.729Z,100.00
2022-10-23T23:09:38.285Z,100.00
2022-10-23T23:12:06.344Z,100.00
2022-10-23T23:14:34.099Z,100.00
2022-10-23T23:17:01.883Z,100.00
2022-10-23T23:19:29.611Z,100.00
2022-10-23T23:21:57.826Z,100.00
2022-10-23T23:24:27.052Z,100.00
2022-10-23T23:26:54.808Z,100.00
2022-10-23T23:29:22.701Z,100.00
2022-10-23T23:31:50.472Z,100.00
2022-10-23T23:34:18.241Z,100.00
2022-10-23T23:36:45.988Z,100.00
2022-10-23T23:39:13.702Z,100.00
2022-10-23T23:41:42.761Z,100.00
2022-10-23T23:44:10.655Z,100.00
2022-10-23T23:46:38.598Z,100.00
2022-10-23T23:49:06.321Z,100.00
2022-10-23T23:51:34.042Z,100.00
2022-10-23T23:54:01.810Z,100.00
2022-10-23T23:56:29.534Z,100.00
2022-10-23T23:58:58.816Z,100.00
